sensor_id;sensor_type;location;lat;lon;timestamp;P1;durP1;ratioP1;P2;durP2;ratioP2
62947;SDS011;51940;52.126;-0.994;2022-09-03T00:01:58;29.00;;;23.60;;
62947;SDS011;51940;52.126;-0.994;2022-09-03T00:04:31;29.30;;;23.30;;
62947;SDS011;51940;52.126;-0.994;2022-09-03T00:07:12;27.30;;;23.40;;
62947;SDS011;51940;52.126;-0.994;2022-09-03T00:09:50;28.10;;;22.00;;
62947;SDS011;51940;52.126;-0.994;2022-09-03T00:12:22;27.00;;;21.50;;
62947;SDS011;51940;52.126;-0.994;2022-09-03T00:15:00;22.90;;;19.30;;
62947;SDS011;51940;52.126;-0.994;2022-09-03T00:17:41;22.50;;;19.70;;
62947;SDS011;51940;52.126;-0.994;2022-09-03T00:20:14;22.30;;;19.40;;
62947;SDS011;51940;52.126;-0.994;2022-09-03T00:22:48;22.50;;;19.00;;
62947;SDS011;51940;52.126;-0.994;2022-09-03T00:25:22;23.50;;;20.20;;
62947;SDS011;51940;52.126;-0.994;2022-09-03T00:27:52;25.70;;;20.50;;
62947;SDS011;51940;52.126;-0.994;2022-09-03T00:30:21;25.20;;;19.20;;
62947;SDS011;51940;52.126;-0.994;2022-09-03T00:35:37;23.60;;;19.70;;
62947;SDS011;51940;52.126;-0.994;2022-09-03T00:38:08;23.40;;;19.90;;
62947;SDS011;51940;52.126;-0.994;2022-09-03T01:11:07;28.40;;;23.00;;
62947;SDS011;51940;52.126;-0.994;2022-09-03T01:29:42;30.70;;;24.00;;
62947;SDS011;51940;52.126;-0.994;2022-09-03T01:35:16;32.00;;;25.20;;
62947;SDS011;51940;52.126;-0.994;2022-09-03T01:44:24;33.10;;;25.50;;
62947;SDS011;51940;52.126;-0.994;2022-09-03T01:52:47;37.70;;;26.70;;
62947;SDS011;51940;52.126;-0.994;2022-09-03T01:58:10;30.20;;;25.00;;
62947;SDS011;51940;52.126;-0.994;2022-09-03T02:00:43;32.40;;;24.90;;
62947;SDS011;51940;52.126;-0.994;2022-09-03T02:03:13;33.20;;;24.80;;
62947;SDS011;51940;52.126;-0.994;2022-09-03T02:05:40;32.40;;;25.70;;
62947;SDS011;51940;52.126;-0.994;2022-09-03T02:08:08;32.30;;;24.90;;
62947;SDS011;51940;52.126;-0.994;2022-09-03T02:13:08;36.70;;;26.90;;
62947;SDS011;51940;52.126;-0.994;2022-09-03T02:15:37;33.60;;;25.30;;
62947;SDS011;51940;52.126;-0.994;2022-09-03T02:18:06;34.60;;;26.50;;
62947;SDS011;51940;52.126;-0.994;2022-09-03T02:20:37;36.80;;;27.50;;
62947;SDS011;51940;52.126;-0.994;2022-09-03T02:23:04;36.10;;;28.40;;
62947;SDS011;51940;52.126;-0.994;2022-09-03T02:25:36;37.20;;;29.60;;
62947;SDS011;51940;52.126;-0.994;2022-09-03T02:28:05;36.30;;;27.00;;
62947;SDS011;51940;52.126;-0.994;2022-09-03T02:30:33;36.20;;;27.50;;
62947;SDS011;51940;52.126;-0.994;2022-09-03T02:32:59;30.60;;;24.30;;
62947;SDS011;51940;52.126;-0.994;2022-09-03T02:35:25;29.60;;;24.40;;
62947;SDS011;51940;52.126;-0.994;2022-09-03T02:37:51;32.80;;;25.10;;
62947;SDS011;51940;52.126;-0.994;2022-09-03T02:40:16;37.30;;;28.10;;
62947;SDS011;51940;52.126;-0.994;2022-09-03T02:42:42;36.20;;;26.80;;
62947;SDS011;51940;52.126;-0.994;2022-09-03T02:45:12;38.00;;;28.80;;
62947;SDS011;51940;52.126;-0.994;2022-09-03T02:47:45;44.30;;;31.60;;
62947;SDS011;51940;52.126;-0.994;2022-09-03T02:50:16;45.90;;;32.40;;
62947;SDS011;51940;52.126;-0.994;2022-09-03T02:52:41;43.70;;;31.70;;
62947;SDS011;51940;52.126;-0.994;2022-09-03T02:55:07;42.00;;;31.80;;
62947;SDS011;51940;52.126;-0.994;2022-09-03T02:57:33;43.50;;;31.30;;
62947;SDS011;51940;52.126;-0.994;2022-09-03T02:59:58;42.50;;;31.40;;
62947;SDS011;51940;52.126;-0.994;2022-09-03T03:02:24;43.50;;;32.30;;
62947;SDS011;51940;52.126;-0.994;2022-09-03T03:04:49;42.80;;;30.90;;
62947;SDS011;51940;52.126;-0.994;2022-09-03T03:07:15;43.60;;;31.60;;
62947;SDS011;51940;52.126;-0.994;2022-09-03T03:09:40;48.40;;;33.50;;
62947;SDS011;51940;52.126;-0.994;2022-09-03T03:12:05;46.20;;;32.80;;
62947;SDS011;51940;52.126;-0.994;2022-09-03T03:14:33;49.90;;;33.20;;
62947;SDS011;51940;52.126;-0.994;2022-09-03T03:16:59;51.20;;;33.90;;
62947;SDS011;51940;52.126;-0.994;2022-09-03T03:19:24;46.90;;;33.60;;
62947;SDS011;51940;52.126;-0.994;2022-09-03T03:21:50;48.80;;;34.00;;
62947;SDS011;51940;52.126;-0.994;2022-09-03T03:24:15;50.70;;;33.90;;
62947;SDS011;51940;52.126;-0.994;2022-09-03T03:26:40;49.30;;;34.00;;
62947;SDS011;51940;52.126;-0.994;2022-09-03T03:29:06;52.50;;;35.00;;
62947;SDS011;51940;52.126;-0.994;2022-09-03T03:31:32;47.40;;;33.70;;
62947;SDS011;51940;52.126;-0.994;2022-09-03T03:33:59;53.20;;;34.80;;
62947;SDS011;51940;52.126;-0.994;2022-09-03T03:36:27;55.00;;;36.30;;
62947;SDS011;51940;52.126;-0.994;2022-09-03T03:38:56;52.90;;;35.20;;
62947;SDS011;51940;52.126;-0.994;2022-09-03T03:41:24;51.90;;;36.10;;
62947;SDS011;51940;52.126;-0.994;2022-09-03T03:44:01;51.60;;;35.50;;
62947;SDS011;51940;52.126;-0.994;2022-09-03T03:46:29;52.20;;;34.80;;
62947;SDS011;51940;52.126;-0.994;2022-09-03T03:48:56;51.50;;;35.50;;
62947;SDS011;51940;52.126;-0.994;2022-09-03T03:51:22;52.20;;;34.30;;
62947;SDS011;51940;52.126;-0.994;2022-09-03T03:53:48;51.50;;;34.00;;
62947;SDS011;51940;52.126;-0.994;2022-09-03T03:56:17;50.90;;;34.70;;
62947;SDS011;51940;52.126;-0.994;2022-09-03T03:58:43;48.60;;;34.60;;
62947;SDS011;51940;52.126;-0.994;2022-09-03T04:01:18;51.90;;;35.10;;
62947;SDS011;51940;52.126;-0.994;2022-09-03T04:03:46;53.80;;;35.70;;
62947;SDS011;51940;52.126;-0.994;2022-09-03T04:06:12;52.50;;;36.50;;
62947;SDS011;51940;52.126;-0.994;2022-09-03T04:08:40;60.10;;;38.40;;
62947;SDS011;51940;52.126;-0.994;2022-09-03T04:11:08;58.90;;;39.40;;
62947;SDS011;51940;52.126;-0.994;2022-09-03T04:13:37;58.40;;;38.70;;
62947;SDS011;51940;52.126;-0.994;2022-09-03T04:16:15;56.30;;;37.70;;
62947;SDS011;51940;52.126;-0.994;2022-09-03T04:18:45;60.20;;;39.10;;
62947;SDS011;51940;52.126;-0.994;2022-09-03T04:21:14;57.40;;;37.80;;
62947;SDS011;51940;52.126;-0.994;2022-09-03T04:23:42;54.00;;;36.20;;
62947;SDS011;51940;52.126;-0.994;2022-09-03T04:26:10;55.90;;;38.60;;
62947;SDS011;51940;52.126;-0.994;2022-09-03T04:28:38;58.20;;;37.80;;
62947;SDS011;51940;52.126;-0.994;2022-09-03T04:31:09;53.00;;;35.60;;
62947;SDS011;51940;52.126;-0.994;2022-09-03T04:33:36;52.60;;;35.90;;
62947;SDS011;51940;52.126;-0.994;2022-09-03T04:36:06;55.70;;;37.50;;
62947;SDS011;51940;52.126;-0.994;2022-09-03T04:38:37;55.10;;;37.70;;
62947;SDS011;51940;52.126;-0.994;2022-09-03T04:41:06;58.60;;;38.80;;
62947;SDS011;51940;52.126;-0.994;2022-09-03T04:43:33;57.50;;;38.30;;
62947;SDS011;51940;52.126;-0.994;2022-09-03T04:45:59;58.00;;;39.00;;
62947;SDS011;51940;52.126;-0.994;2022-09-03T04:48:28;61.60;;;39.80;;
62947;SDS011;51940;52.126;-0.994;2022-09-03T04:51:00;59.70;;;38.50;;
62947;SDS011;51940;52.126;-0.994;2022-09-03T04:53:33;56.60;;;37.70;;
62947;SDS011;51940;52.126;-0.994;2022-09-03T04:56:01;59.70;;;37.80;;
62947;SDS011;51940;52.126;-0.994;2022-09-03T04:58:27;54.20;;;36.40;;
62947;SDS011;51940;52.126;-0.994;2022-09-03T05:00:53;59.80;;;38.60;;
62947;SDS011;51940;52.126;-0.994;2022-09-03T05:03:19;63.10;;;40.00;;
62947;SDS011;51940;52.126;-0.994;2022-09-03T05:05:55;60.00;;;38.80;;
62947;SDS011;51940;52.126;-0.994;2022-09-03T05:08:21;58.10;;;37.80;;
62947;SDS011;51940;52.126;-0.994;2022-09-03T05:10:48;58.90;;;38.40;;
62947;SDS011;51940;52.126;-0.994;2022-09-03T05:13:13;59.60;;;38.40;;
62947;SDS011;51940;52.126;-0.994;2022-09-03T05:15:38;59.00;;;37.80;;
62947;SDS011;51940;52.126;-0.994;2022-09-03T05:18:07;56.20;;;37.50;;
62947;SDS011;51940;52.126;-0.994;2022-09-03T05:20:32;56.50;;;37.30;;
62947;SDS011;51940;52.126;-0.994;2022-09-03T05:23:01;50.00;;;34.70;;
62947;SDS011;51940;52.126;-0.994;2022-09-03T05:25:30;50.90;;;34.40;;
62947;SDS011;51940;52.126;-0.994;2022-09-03T05:27:56;48.40;;;34.10;;
62947;SDS011;51940;52.126;-0.994;2022-09-03T05:30:22;46.60;;;32.10;;
62947;SDS011;51940;52.126;-0.994;2022-09-03T05:32:49;41.40;;;31.10;;
62947;SDS011;51940;52.126;-0.994;2022-09-03T05:35:15;52.60;;;31.00;;
62947;SDS011;51940;52.126;-0.994;2022-09-03T05:37:40;43.60;;;30.60;;
62947;SDS011;51940;52.126;-0.994;2022-09-03T05:40:06;52.10;;;29.90;;
62947;SDS011;51940;52.126;-0.994;2022-09-03T05:42:35;49.00;;;29.10;;
62947;SDS011;51940;52.126;-0.994;2022-09-03T05:45:04;39.00;;;28.90;;
62947;SDS011;51940;52.126;-0.994;2022-09-03T05:47:34;44.30;;;30.00;;
62947;SDS011;51940;52.126;-0.994;2022-09-03T05:49:59;50.90;;;27.60;;
62947;SDS011;51940;52.126;-0.994;2022-09-03T05:52:24;68.70;;;29.10;;
62947;SDS011;51940;52.126;-0.994;2022-09-03T05:54:50;36.90;;;28.90;;
62947;SDS011;51940;52.126;-0.994;2022-09-03T05:57:15;60.50;;;29.80;;
62947;SDS011;51940;52.126;-0.994;2022-09-03T05:59:41;44.00;;;30.20;;
62947;SDS011;51940;52.126;-0.994;2022-09-03T06:02:06;40.70;;;29.20;;
62947;SDS011;51940;52.126;-0.994;2022-09-03T06:04:31;45.30;;;30.70;;
62947;SDS011;51940;52.126;-0.994;2022-09-03T06:06:57;40.00;;;29.70;;
62947;SDS011;51940;52.126;-0.994;2022-09-03T06:09:23;48.50;;;31.40;;
62947;SDS011;51940;52.126;-0.994;2022-09-03T06:11:48;43.00;;;31.70;;
62947;SDS011;51940;52.126;-0.994;2022-09-03T06:14:14;44.90;;;31.90;;
62947;SDS011;51940;52.126;-0.994;2022-09-03T06:16:44;45.90;;;31.70;;
62947;SDS011;51940;52.126;-0.994;2022-09-03T06:19:13;44.30;;;33.60;;
62947;SDS011;51940;52.126;-0.994;2022-09-03T06:21:40;45.60;;;32.70;;
62947;SDS011;51940;52.126;-0.994;2022-09-03T06:24:07;44.50;;;32.40;;
62947;SDS011;51940;52.126;-0.994;2022-09-03T06:26:37;44.30;;;32.20;;
62947;SDS011;51940;52.126;-0.994;2022-09-03T06:29:04;43.20;;;31.50;;
62947;SDS011;51940;52.126;-0.994;2022-09-03T06:31:30;43.10;;;31.40;;
62947;SDS011;51940;52.126;-0.994;2022-09-03T06:33:55;50.00;;;31.90;;
62947;SDS011;51940;52.126;-0.994;2022-09-03T06:36:21;41.30;;;31.00;;
62947;SDS011;51940;52.126;-0.994;2022-09-03T06:38:52;41.60;;;31.10;;
62947;SDS011;51940;52.126;-0.994;2022-09-03T06:41:20;45.10;;;31.60;;
62947;SDS011;51940;52.126;-0.994;2022-09-03T06:43:50;40.10;;;30.90;;
62947;SDS011;51940;52.126;-0.994;2022-09-03T06:46:18;39.10;;;30.10;;
62947;SDS011;51940;52.126;-0.994;2022-09-03T06:48:46;36.60;;;28.70;;
62947;SDS011;51940;52.126;-0.994;2022-09-03T06:51:13;37.90;;;29.70;;
62947;SDS011;51940;52.126;-0.994;2022-09-03T06:53:42;39.80;;;29.80;;
62947;SDS011;51940;52.126;-0.994;2022-09-03T06:56:11;36.40;;;29.10;;
62947;SDS011;51940;52.126;-0.994;2022-09-03T06:58:39;38.70;;;30.20;;
62947;SDS011;51940;52.126;-0.994;2022-09-03T07:01:11;41.00;;;31.00;;
62947;SDS011;51940;52.126;-0.994;2022-09-03T07:03:39;37.80;;;30.30;;
62947;SDS011;51940;52.126;-0.994;2022-09-03T07:06:07;36.80;;;29.00;;
62947;SDS011;51940;52.126;-0.994;2022-09-03T07:08:35;36.70;;;29.60;;
62947;SDS011;51940;52.126;-0.994;2022-09-03T07:11:01;38.70;;;29.00;;
62947;SDS011;51940;52.126;-0.994;2022-09-03T07:13:33;36.10;;;28.10;;
62947;SDS011;51940;52.126;-0.994;2022-09-03T07:16:04;35.00;;;26.90;;
62947;SDS011;51940;52.126;-0.994;2022-09-03T07:18:32;35.20;;;27.70;;
62947;SDS011;51940;52.126;-0.994;2022-09-03T07:21:03;34.60;;;27.30;;
62947;SDS011;51940;52.126;-0.994;2022-09-03T07:23:30;31.90;;;25.50;;
62947;SDS011;51940;52.126;-0.994;2022-09-03T07:25:58;30.20;;;25.60;;
62947;SDS011;51940;52.126;-0.994;2022-09-03T07:28:25;34.30;;;26.50;;
62947;SDS011;51940;52.126;-0.994;2022-09-03T07:30:52;31.10;;;25.70;;
62947;SDS011;51940;52.126;-0.994;2022-09-03T07:33:19;32.70;;;25.70;;
62947;SDS011;51940;52.126;-0.994;2022-09-03T07:35:45;32.90;;;25.00;;
62947;SDS011;51940;52.126;-0.994;2022-09-03T07:38:16;29.70;;;23.30;;
62947;SDS011;51940;52.126;-0.994;2022-09-03T07:40:43;31.70;;;24.40;;
62947;SDS011;51940;52.126;-0.994;2022-09-03T07:43:11;27.60;;;22.00;;
62947;SDS011;51940;52.126;-0.994;2022-09-03T07:45:37;25.30;;;19.00;;
62947;SDS011;51940;52.126;-0.994;2022-09-03T07:48:03;23.70;;;19.20;;
62947;SDS011;51940;52.126;-0.994;2022-09-03T07:50:29;22.60;;;19.10;;
62947;SDS011;51940;52.126;-0.994;2022-09-03T07:53:01;24.00;;;18.50;;
62947;SDS011;51940;52.126;-0.994;2022-09-03T07:55:27;24.30;;;19.10;;
62947;SDS011;51940;52.126;-0.994;2022-09-03T07:57:56;20.80;;;18.50;;
62947;SDS011;51940;52.126;-0.994;2022-09-03T08:00:23;25.90;;;19.60;;
62947;SDS011;51940;52.126;-0.994;2022-09-03T08:02:53;26.30;;;21.30;;
62947;SDS011;51940;52.126;-0.994;2022-09-03T08:05:19;26.20;;;21.60;;
62947;SDS011;51940;52.126;-0.994;2022-09-03T08:07:45;24.90;;;20.20;;
62947;SDS011;51940;52.126;-0.994;2022-09-03T08:10:13;27.20;;;20.50;;
62947;SDS011;51940;52.126;-0.994;2022-09-03T08:12:40;25.90;;;21.20;;
62947;SDS011;51940;52.126;-0.994;2022-09-03T08:15:06;24.80;;;20.50;;
62947;SDS011;51940;52.126;-0.994;2022-09-03T08:17:32;26.20;;;20.90;;
62947;SDS011;51940;52.126;-0.994;2022-09-03T08:19:58;26.20;;;21.20;;
62947;SDS011;51940;52.126;-0.994;2022-09-03T08:22:24;25.30;;;21.00;;
62947;SDS011;51940;52.126;-0.994;2022-09-03T08:24:50;27.50;;;20.90;;
62947;SDS011;51940;52.126;-0.994;2022-09-03T08:27:18;27.40;;;21.80;;
62947;SDS011;51940;52.126;-0.994;2022-09-03T08:29:50;25.80;;;21.40;;
62947;SDS011;51940;52.126;-0.994;2022-09-03T08:32:15;26.50;;;22.00;;
62947;SDS011;51940;52.126;-0.994;2022-09-03T08:34:41;27.40;;;21.50;;
62947;SDS011;51940;52.126;-0.994;2022-09-03T08:37:06;26.20;;;21.00;;
62947;SDS011;51940;52.126;-0.994;2022-09-03T08:39:33;29.40;;;21.10;;
62947;SDS011;51940;52.126;-0.994;2022-09-03T08:44:53;25.90;;;21.40;;
62947;SDS011;51940;52.126;-0.994;2022-09-03T08:47:31;26.30;;;21.80;;
62947;SDS011;51940;52.126;-0.994;2022-09-03T08:50:20;29.10;;;21.90;;
62947;SDS011;51940;52.126;-0.994;2022-09-03T08:53:02;24.30;;;20.70;;
62947;SDS011;51940;52.126;-0.994;2022-09-03T08:55:46;25.10;;;20.50;;
62947;SDS011;51940;52.126;-0.994;2022-09-03T08:58:20;21.60;;;19.30;;
62947;SDS011;51940;52.126;-0.994;2022-09-03T09:00:51;17.20;;;15.20;;
62947;SDS011;51940;52.126;-0.994;2022-09-03T09:06:27;13.90;;;12.40;;
62947;SDS011;51940;52.126;-0.994;2022-09-03T09:12:17;12.20;;;10.90;;
62947;SDS011;51940;52.126;-0.994;2022-09-03T09:17:36;15.00;;;11.30;;
62947;SDS011;51940;52.126;-0.994;2022-09-03T09:23:17;11.70;;;10.40;;
62947;SDS011;51940;52.126;-0.994;2022-09-03T09:25:50;11.60;;;10.40;;
62947;SDS011;51940;52.126;-0.994;2022-09-03T09:28:19;15.50;;;11.10;;
62947;SDS011;51940;52.126;-0.994;2022-09-03T09:30:47;13.90;;;10.70;;
62947;SDS011;51940;52.126;-0.994;2022-09-03T09:33:15;13.40;;;11.10;;
62947;SDS011;51940;52.126;-0.994;2022-09-03T09:35:42;12.50;;;10.90;;
62947;SDS011;51940;52.126;-0.994;2022-09-03T09:38:08;13.40;;;11.10;;
62947;SDS011;51940;52.126;-0.994;2022-09-03T09:40:44;13.00;;;10.60;;
62947;SDS011;51940;52.126;-0.994;2022-09-03T09:43:11;11.10;;;9.90;;
62947;SDS011;51940;52.126;-0.994;2022-09-03T09:45:40;11.40;;;9.50;;
62947;SDS011;51940;52.126;-0.994;2022-09-03T09:51:02;12.90;;;10.70;;
62947;SDS011;51940;52.126;-0.994;2022-09-03T09:55:59;10.90;;;9.80;;
62947;SDS011;51940;52.126;-0.994;2022-09-03T09:58:27;11.50;;;10.30;;
62947;SDS011;51940;52.126;-0.994;2022-09-03T10:03:38;14.80;;;11.30;;
62947;SDS011;51940;52.126;-0.994;2022-09-03T10:06:37;14.20;;;10.90;;
62947;SDS011;51940;52.126;-0.994;2022-09-03T10:09:20;14.90;;;11.30;;
62947;SDS011;51940;52.126;-0.994;2022-09-03T10:12:13;13.60;;;11.00;;
62947;SDS011;51940;52.126;-0.994;2022-09-03T10:25:46;12.10;;;10.10;;
62947;SDS011;51940;52.126;-0.994;2022-09-03T10:28:17;11.90;;;10.20;;
62947;SDS011;51940;52.126;-0.994;2022-09-03T10:33:29;12.10;;;10.50;;
62947;SDS011;51940;52.126;-0.994;2022-09-03T10:50:11;8.90;;;7.10;;
62947;SDS011;51940;52.126;-0.994;2022-09-03T11:06:39;6.60;;;5.80;;
62947;SDS011;51940;52.126;-0.994;2022-09-03T11:09:20;6.70;;;5.90;;
62947;SDS011;51940;52.126;-0.994;2022-09-03T11:11:52;6.80;;;6.10;;
62947;SDS011;51940;52.126;-0.994;2022-09-03T11:14:31;6.60;;;5.70;;
62947;SDS011;51940;52.126;-0.994;2022-09-03T11:17:08;6.90;;;5.40;;
62947;SDS011;51940;52.126;-0.994;2022-09-03T11:19:51;6.20;;;5.60;;
62947;SDS011;51940;52.126;-0.994;2022-09-03T11:22:24;5.80;;;5.10;;
62947;SDS011;51940;52.126;-0.994;2022-09-03T11:24:55;5.80;;;5.10;;
62947;SDS011;51940;52.126;-0.994;2022-09-03T11:30:14;8.90;;;5.10;;
62947;SDS011;51940;52.126;-0.994;2022-09-03T11:32:50;4.70;;;4.30;;
62947;SDS011;51940;52.126;-0.994;2022-09-03T11:38:02;4.60;;;4.20;;
62947;SDS011;51940;52.126;-0.994;2022-09-03T11:40:33;5.10;;;4.60;;
62947;SDS011;51940;52.126;-0.994;2022-09-03T11:43:06;7.00;;;4.60;;
62947;SDS011;51940;52.126;-0.994;2022-09-03T11:46:02;5.00;;;4.50;;
62947;SDS011;51940;52.126;-0.994;2022-09-03T11:54:02;5.70;;;4.70;;
62947;SDS011;51940;52.126;-0.994;2022-09-03T11:56:37;5.90;;;5.20;;
62947;SDS011;51940;52.126;-0.994;2022-09-03T12:01:42;5.70;;;4.50;;
62947;SDS011;51940;52.126;-0.994;2022-09-03T12:04:12;8.30;;;4.50;;
62947;SDS011;51940;52.126;-0.994;2022-09-03T12:09:52;5.50;;;4.90;;
62947;SDS011;51940;52.126;-0.994;2022-09-03T12:20:42;5.90;;;5.20;;
62947;SDS011;51940;52.126;-0.994;2022-09-03T12:23:12;5.70;;;5.20;;
62947;SDS011;51940;52.126;-0.994;2022-09-03T12:25:43;5.70;;;5.20;;
62947;SDS011;51940;52.126;-0.994;2022-09-03T12:28:12;7.00;;;5.30;;
62947;SDS011;51940;52.126;-0.994;2022-09-03T12:30:47;7.00;;;5.40;;
62947;SDS011;51940;52.126;-0.994;2022-09-03T12:33:15;6.00;;;5.50;;
62947;SDS011;51940;52.126;-0.994;2022-09-03T12:35:42;5.90;;;5.20;;
62947;SDS011;51940;52.126;-0.994;2022-09-03T12:38:08;7.30;;;5.80;;
62947;SDS011;51940;52.126;-0.994;2022-09-03T12:40:39;6.20;;;5.60;;
62947;SDS011;51940;52.126;-0.994;2022-09-03T12:43:11;7.30;;;6.60;;
62947;SDS011;51940;52.126;-0.994;2022-09-03T12:45:48;7.50;;;6.40;;
62947;SDS011;51940;52.126;-0.994;2022-09-03T12:48:18;7.20;;;6.50;;
62947;SDS011;51940;52.126;-0.994;2022-09-03T12:50:46;7.40;;;6.70;;
62947;SDS011;51940;52.126;-0.994;2022-09-03T12:53:14;9.00;;;7.80;;
62947;SDS011;51940;52.126;-0.994;2022-09-03T12:58:16;7.80;;;7.00;;
62947;SDS011;51940;52.126;-0.994;2022-09-03T13:00:47;7.60;;;6.50;;
62947;SDS011;51940;52.126;-0.994;2022-09-03T13:03:26;8.00;;;7.20;;
62947;SDS011;51940;52.126;-0.994;2022-09-03T13:06:01;7.90;;;6.40;;
62947;SDS011;51940;52.126;-0.994;2022-09-03T13:08:32;10.80;;;7.30;;
62947;SDS011;51940;52.126;-0.994;2022-09-03T13:11:05;8.30;;;7.50;;
62947;SDS011;51940;52.126;-0.994;2022-09-03T13:13:32;7.90;;;6.80;;
62947;SDS011;51940;52.126;-0.994;2022-09-03T13:16:09;8.20;;;7.30;;
62947;SDS011;51940;52.126;-0.994;2022-09-03T13:19:00;7.20;;;6.50;;
62947;SDS011;51940;52.126;-0.994;2022-09-03T13:24:02;7.50;;;6.80;;
62947;SDS011;51940;52.126;-0.994;2022-09-03T13:38:08;6.20;;;5.60;;
62947;SDS011;51940;52.126;-0.994;2022-09-03T13:44:08;6.00;;;5.30;;
62947;SDS011;51940;52.126;-0.994;2022-09-03T13:49:20;8.00;;;6.10;;
62947;SDS011;51940;52.126;-0.994;2022-09-03T13:52:12;6.50;;;5.90;;
62947;SDS011;51940;52.126;-0.994;2022-09-03T13:55:11;6.00;;;5.50;;
62947;SDS011;51940;52.126;-0.994;2022-09-03T13:57:46;5.90;;;5.30;;
62947;SDS011;51940;52.126;-0.994;2022-09-03T14:03:24;4.60;;;4.20;;
62947;SDS011;51940;52.126;-0.994;2022-09-03T14:14:01;5.60;;;4.60;;
62947;SDS011;51940;52.126;-0.994;2022-09-03T14:22:03;4.80;;;4.20;;
62947;SDS011;51940;52.126;-0.994;2022-09-03T14:24:55;4.30;;;3.90;;
62947;SDS011;51940;52.126;-0.994;2022-09-03T14:27:30;5.10;;;4.70;;
62947;SDS011;51940;52.126;-0.994;2022-09-03T14:29:58;5.20;;;4.70;;
62947;SDS011;51940;52.126;-0.994;2022-09-03T14:35:38;5.20;;;4.10;;
62947;SDS011;51940;52.126;-0.994;2022-09-03T14:41:21;4.40;;;4.00;;
62947;SDS011;51940;52.126;-0.994;2022-09-03T14:55:24;3.80;;;3.50;;
62947;SDS011;51940;52.126;-0.994;2022-09-03T14:58:46;3.60;;;3.30;;
62947;SDS011;51940;52.126;-0.994;2022-09-03T15:00:57;3.60;;;3.20;;
62947;SDS011;51940;52.126;-0.994;2022-09-03T15:06:49;5.50;;;3.10;;
62947;SDS011;51940;52.126;-0.994;2022-09-03T15:09:27;4.00;;;3.10;;
62947;SDS011;51940;52.126;-0.994;2022-09-03T15:12:07;3.80;;;3.50;;
62947;SDS011;51940;52.126;-0.994;2022-09-03T15:14:53;3.70;;;3.40;;
62947;SDS011;51940;52.126;-0.994;2022-09-03T15:20:18;3.80;;;3.40;;
62947;SDS011;51940;52.126;-0.994;2022-09-03T15:33:39;3.70;;;3.40;;
62947;SDS011;51940;52.126;-0.994;2022-09-03T15:38:47;4.30;;;3.40;;
62947;SDS011;51940;52.126;-0.994;2022-09-03T15:41:36;5.40;;;3.80;;
62947;SDS011;51940;52.126;-0.994;2022-09-03T15:44:15;4.40;;;4.00;;
62947;SDS011;51940;52.126;-0.994;2022-09-03T15:49:33;4.60;;;3.80;;
62947;SDS011;51940;52.126;-0.994;2022-09-03T15:52:07;6.30;;;3.90;;
62947;SDS011;51940;52.126;-0.994;2022-09-03T16:03:10;4.90;;;4.40;;
62947;SDS011;51940;52.126;-0.994;2022-09-03T16:05:46;5.20;;;4.00;;
62947;SDS011;51940;52.126;-0.994;2022-09-03T16:08:22;4.70;;;4.20;;
62947;SDS011;51940;52.126;-0.994;2022-09-03T16:24:23;4.80;;;4.30;;
62947;SDS011;51940;52.126;-0.994;2022-09-03T16:26:59;4.80;;;4.30;;
62947;SDS011;51940;52.126;-0.994;2022-09-03T16:29:29;4.80;;;4.10;;
62947;SDS011;51940;52.126;-0.994;2022-09-03T16:42:59;3.60;;;3.30;;
62947;SDS011;51940;52.126;-0.994;2022-09-03T16:51:43;3.80;;;3.40;;
62947;SDS011;51940;52.126;-0.994;2022-09-03T17:00:12;5.20;;;3.80;;
62947;SDS011;51940;52.126;-0.994;2022-09-03T17:10:48;4.70;;;4.20;;
62947;SDS011;51940;52.126;-0.994;2022-09-03T17:22:05;4.70;;;4.20;;
62947;SDS011;51940;52.126;-0.994;2022-09-03T17:24:42;6.10;;;4.60;;
62947;SDS011;51940;52.126;-0.994;2022-09-03T17:30:02;6.30;;;4.70;;
62947;SDS011;51940;52.126;-0.994;2022-09-03T17:33:15;5.80;;;4.90;;
62947;SDS011;51940;52.126;-0.994;2022-09-03T17:36:18;8.20;;;5.20;;
62947;SDS011;51940;52.126;-0.994;2022-09-03T17:49:24;6.90;;;4.60;;
62947;SDS011;51940;52.126;-0.994;2022-09-03T17:52:03;5.70;;;5.10;;
62947;SDS011;51940;52.126;-0.994;2022-09-03T17:54:41;6.40;;;4.70;;
62947;SDS011;51940;52.126;-0.994;2022-09-03T17:57:52;7.40;;;5.50;;
62947;SDS011;51940;52.126;-0.994;2022-09-03T18:00:22;5.60;;;5.00;;
62947;SDS011;51940;52.126;-0.994;2022-09-03T18:02:54;5.80;;;5.10;;
62947;SDS011;51940;52.126;-0.994;2022-09-03T18:05:45;5.90;;;5.20;;
62947;SDS011;51940;52.126;-0.994;2022-09-03T18:11:29;6.20;;;5.50;;
62947;SDS011;51940;52.126;-0.994;2022-09-03T18:17:02;6.00;;;5.40;;
62947;SDS011;51940;52.126;-0.994;2022-09-03T18:19:38;6.80;;;5.50;;
62947;SDS011;51940;52.126;-0.994;2022-09-03T18:25:25;5.00;;;4.60;;
62947;SDS011;51940;52.126;-0.994;2022-09-03T18:28:11;6.60;;;5.10;;
62947;SDS011;51940;52.126;-0.994;2022-09-03T18:30:58;5.50;;;4.60;;
62947;SDS011;51940;52.126;-0.994;2022-09-03T18:33:42;5.80;;;5.20;;
62947;SDS011;51940;52.126;-0.994;2022-09-03T18:36:26;6.70;;;5.00;;
62947;SDS011;51940;52.126;-0.994;2022-09-03T18:39:25;5.60;;;5.00;;
62947;SDS011;51940;52.126;-0.994;2022-09-03T18:45:30;4.90;;;3.80;;
62947;SDS011;51940;52.126;-0.994;2022-09-03T19:00:40;3.90;;;2.70;;
62947;SDS011;51940;52.126;-0.994;2022-09-03T19:06:41;3.50;;;2.90;;
62947;SDS011;51940;52.126;-0.994;2022-09-03T19:09:42;3.50;;;3.10;;
62947;SDS011;51940;52.126;-0.994;2022-09-03T19:15:51;3.80;;;2.70;;
62947;SDS011;51940;52.126;-0.994;2022-09-03T19:21:42;4.40;;;3.60;;
62947;SDS011;51940;52.126;-0.994;2022-09-03T19:24:32;3.50;;;3.20;;
62947;SDS011;51940;52.126;-0.994;2022-09-03T19:27:32;4.00;;;3.00;;
62947;SDS011;51940;52.126;-0.994;2022-09-03T19:30:56;5.10;;;3.30;;
62947;SDS011;51940;52.126;-0.994;2022-09-03T19:42:48;4.50;;;3.30;;
62947;SDS011;51940;52.126;-0.994;2022-09-03T19:48:50;6.00;;;3.70;;
62947;SDS011;51940;52.126;-0.994;2022-09-03T19:51:56;5.10;;;3.50;;
62947;SDS011;51940;52.126;-0.994;2022-09-03T19:54:52;5.10;;;3.70;;
62947;SDS011;51940;52.126;-0.994;2022-09-03T19:57:40;8.00;;;4.20;;
62947;SDS011;51940;52.126;-0.994;2022-09-03T20:00:30;4.90;;;3.90;;
62947;SDS011;51940;52.126;-0.994;2022-09-03T20:03:16;6.30;;;3.60;;
62947;SDS011;51940;52.126;-0.994;2022-09-03T20:06:01;4.30;;;3.10;;
62947;SDS011;51940;52.126;-0.994;2022-09-03T20:08:48;6.30;;;3.30;;
62947;SDS011;51940;52.126;-0.994;2022-09-03T20:11:33;5.10;;;3.20;;
62947;SDS011;51940;52.126;-0.994;2022-09-03T20:14:01;4.70;;;3.30;;
62947;SDS011;51940;52.126;-0.994;2022-09-03T20:22:42;4.70;;;3.30;;
62947;SDS011;51940;52.126;-0.994;2022-09-03T20:27:26;6.30;;;3.80;;
62947;SDS011;51940;52.126;-0.994;2022-09-03T20:36:03;4.90;;;3.50;;
62947;SDS011;51940;52.126;-0.994;2022-09-03T20:41:20;4.80;;;3.50;;
62947;SDS011;51940;52.126;-0.994;2022-09-03T20:46:41;5.00;;;3.80;;
62947;SDS011;51940;52.126;-0.994;2022-09-03T20:50:18;6.90;;;3.70;;
62947;SDS011;51940;52.126;-0.994;2022-09-03T20:52:22;5.80;;;3.70;;
62947;SDS011;51940;52.126;-0.994;2022-09-03T21:00:38;5.70;;;3.40;;
62947;SDS011;51940;52.126;-0.994;2022-09-03T21:03:33;4.90;;;3.60;;
62947;SDS011;51940;52.126;-0.994;2022-09-03T21:08:59;5.50;;;3.90;;
62947;SDS011;51940;52.126;-0.994;2022-09-03T21:12:19;8.00;;;4.00;;
62947;SDS011;51940;52.126;-0.994;2022-09-03T21:19:54;4.00;;;3.60;;
62947;SDS011;51940;52.126;-0.994;2022-09-03T21:25:37;5.70;;;3.60;;
62947;SDS011;51940;52.126;-0.994;2022-09-03T21:28:15;5.50;;;3.20;;
62947;SDS011;51940;52.126;-0.994;2022-09-03T21:30:49;5.50;;;3.40;;